createdAt,value
2022-08-11T00:02:03.805Z,17.80
2022-08-11T00:07:07.753Z,17.80
2022-08-11T00:12:15.893Z,17.80
2022-08-11T00:17:17.962Z,17.70
2022-08-11T00:22:21.624Z,17.60
2022-08-11T00:27:37.659Z,17.60
2022-08-11T00:32:44.181Z,17.60
2022-08-11T00:37:49.863Z,17.50
2022-08-11T00:43:20.786Z,17.50
2022-08-11T00:48:36.803Z,17.40
2022-08-11T00:54:00.669Z,17.30
2022-08-11T00:59:34.171Z,17.20
2022-08-11T01:04:39.524Z,17.20
2022-08-11T01:09:52.981Z,17.10
2022-08-11T01:15:24.980Z,17.10
2022-08-11T01:21:04.099Z,17.10
2022-08-11T01:26:38.237Z,17.10
2022-08-11T01:32:01.480Z,17.10
2022-08-11T01:37:31.221Z,17.00
2022-08-11T01:43:07.122Z,17.00
2022-08-11T01:48:22.989Z,17.00
2022-08-11T01:53:52.709Z,17.00
2022-08-11T01:58:58.200Z,16.90
2022-08-11T02:04:09.034Z,16.80
2022-08-11T02:09:27.284Z,16.70
2022-08-11T02:15:04.645Z,16.60
2022-08-11T02:20:41.198Z,16.50
2022-08-11T02:25:54.012Z,16.50
2022-08-11T02:32:24.306Z,16.40
2022-08-11T02:37:30.779Z,16.40
2022-08-11T02:42:42.774Z,16.30
2022-08-11T02:48:22.165Z,16.30
2022-08-11T02:54:04.194Z,16.20
2022-08-11T02:59:36.271Z,16.10
2022-08-11T03:04:49.955Z,16.00
2022-08-11T03:10:24.526Z,16.00
2022-08-11T03:15:50.962Z,15.90
2022-08-11T03:21:24.561Z,15.90
2022-08-11T03:27:08.359Z,15.90
2022-08-11T03:32:26.955Z,15.90
2022-08-11T03:37:50.470Z,15.90
2022-08-11T03:43:01.277Z,15.90
2022-08-11T03:48:28.269Z,15.90
2022-08-11T03:54:16.161Z,15.80
2022-08-11T03:59:56.627Z,15.80
2022-08-11T04:05:10.581Z,15.80
2022-08-11T04:10:32.865Z,15.80
2022-08-11T04:16:11.908Z,15.70
2022-08-11T04:21:36.948Z,15.70
2022-08-11T04:26:57.841Z,15.70
2022-08-11T04:32:09.661Z,15.60
2022-08-11T04:37:34.633Z,15.60
2022-08-11T04:43:22.954Z,15.60
2022-08-11T04:49:04.772Z,15.70
2022-08-11T04:54:54.359Z,15.70
2022-08-11T05:00:27.457Z,15.70
2022-08-11T05:05:55.365Z,15.80
2022-08-11T05:11:27.794Z,15.80
2022-08-11T05:16:53.350Z,15.90
2022-08-11T05:22:15.725Z,16.10
2022-08-11T05:27:38.280Z,16.30
2022-08-11T05:33:02.297Z,16.60
2022-08-11T05:38:29.469Z,16.90
2022-08-11T05:44:20.925Z,17.30
2022-08-11T05:49:33.335Z,18.00
2022-08-11T05:54:54.391Z,18.70
2022-08-11T06:00:01.273Z,19.20
2022-08-11T06:05:03.323Z,19.80
2022-08-11T06:10:05.965Z,20.20
2022-08-11T06:15:11.273Z,20.70
2022-08-11T06:20:15.139Z,21.20
2022-08-11T06:25:17.435Z,21.60
2022-08-11T06:30:23.477Z,22.10
2022-08-11T06:35:49.187Z,22.50
2022-08-11T06:41:16.884Z,22.80
2022-08-11T06:46:30.713Z,23.20
2022-08-11T06:51:35.141Z,23.70
2022-08-11T06:57:26.346Z,24.20
2022-08-11T07:02:31.051Z,24.50
2022-08-11T07:08:33.642Z,25.20
2022-08-11T07:13:57.690Z,25.70
2022-08-11T07:19:25.161Z,26.40
2022-08-11T07:25:01.930Z,26.80
2022-08-11T07:30:08.945Z,27.20
2022-08-11T07:35:13.322Z,27.20
2022-08-11T07:40:21.748Z,27.20
2022-08-11T07:45:45.187Z,27.10
2022-08-11T07:51:06.774Z,27.00
2022-08-11T07:56:09.288Z,27.00
2022-08-11T08:01:42.794Z,27.00
2022-08-11T08:07:03.202Z,27.70
2022-08-11T08:12:24.711Z,28.10
2022-08-11T08:17:45.077Z,28.20
2022-08-11T08:23:07.520Z,28.30
2022-08-11T08:28:11.623Z,28.20
2022-08-11T08:33:21.676Z,28.80
2022-08-11T08:38:24.266Z,28.40
2022-08-11T08:43:26.193Z,28.00
2022-08-11T08:48:29.805Z,28.40
2022-08-11T08:53:39.307Z,29.00
2022-08-11T08:58:54.808Z,30.00
2022-08-11T09:04:04.865Z,29.70
2022-08-11T09:09:10.197Z,29.70
2022-08-11T09:14:15.070Z,29.90
2022-08-11T09:19:20.549Z,30.20
2022-08-11T09:24:46.154Z,29.80
2022-08-11T09:29:48.509Z,30.50
2022-08-11T09:34:52.102Z,29.70
2022-08-11T09:40:14.855Z,29.40
2022-08-11T09:45:19.537Z,28.60
2022-08-11T09:50:22.576Z,28.20
2022-08-11T09:55:24.750Z,28.70
2022-08-11T10:00:38.066Z,29.70
2022-08-11T10:05:58.620Z,29.10
2022-08-11T10:11:06.975Z,28.40
2022-08-11T10:16:15.803Z,28.20
2022-08-11T10:21:30.796Z,28.90
2022-08-11T10:27:05.733Z,29.60
2022-08-11T10:32:31.421Z,30.20
2022-08-11T10:38:15.843Z,30.40
2022-08-11T10:43:03.290Z,30.80
2022-08-11T10:48:06.752Z,30.70
2022-08-11T10:53:27.899Z,29.90
2022-08-11T10:58:49.457Z,29.90
2022-08-11T11:03:52.837Z,30.60
2022-08-11T11:09:21.169Z,31.50
2022-08-11T11:14:46.121Z,30.80
2022-08-11T11:19:58.064Z,31.20
2022-08-11T11:25:09.457Z,31.70
2022-08-11T11:30:14.428Z,32.00
2022-08-11T11:35:16.264Z,32.70
2022-08-11T11:40:22.945Z,32.80
2022-08-11T11:45:33.855Z,32.60
2022-08-11T11:50:37.208Z,31.50
2022-08-11T11:55:39.466Z,31.10
2022-08-11T12:01:00.073Z,31.20
2022-08-11T12:06:02.900Z,30.30
2022-08-11T12:11:26.427Z,30.30
2022-08-11T12:16:32.946Z,30.10
2022-08-11T12:21:59.339Z,30.00
2022-08-11T12:27:20.911Z,30.30
2022-08-11T12:32:32.448Z,31.10
2022-08-11T12:37:40.697Z,31.20
2022-08-11T12:43:04.047Z,30.80
2022-08-11T12:48:59.345Z,30.20
2022-08-11T12:54:07.062Z,29.40
2022-08-11T12:59:28.172Z,29.00
2022-08-11T13:04:50.080Z,28.90
2022-08-11T13:09:56.178Z,29.00
2022-08-11T13:14:59.490Z,29.30
2022-08-11T13:20:02.909Z,29.40
2022-08-11T13:25:06.903Z,29.20
2022-08-11T13:30:27.841Z,28.90
2022-08-11T13:35:33.489Z,28.60
2022-08-11T13:40:54.766Z,28.40
2022-08-11T13:46:17.755Z,28.40
2022-08-11T13:51:35.508Z,28.50
2022-08-11T13:56:43.295Z,28.80
2022-08-11T14:02:20.731Z,29.00
2022-08-11T14:07:11.972Z,28.90
2022-08-11T14:12:36.385Z,28.80
2022-08-11T14:17:48.003Z,28.60
2022-08-11T14:22:52.148Z,28.40
2022-08-11T14:28:32.098Z,28.10
2022-08-11T14:33:20.411Z,28.00
2022-08-11T14:38:23.198Z,28.10
2022-08-11T14:44:05.848Z,27.80
2022-08-11T14:49:06.136Z,27.70
2022-08-11T14:54:27.776Z,27.70
2022-08-11T14:59:30.224Z,27.50
2022-08-11T15:04:35.820Z,27.60
2022-08-11T15:10:09.786Z,27.30
2022-08-11T15:15:25.818Z,27.20
2022-08-11T15:20:48.419Z,27.00
2022-08-11T15:26:02.440Z,27.00
2022-08-11T15:31:23.602Z,26.90
2022-08-11T15:36:45.505Z,26.80
2022-08-11T15:42:26.801Z,26.70
2022-08-11T15:47:35.957Z,26.50
2022-08-11T15:53:03.142Z,26.50
2022-08-11T15:58:27.098Z,26.40
2022-08-11T16:03:54.369Z,26.40
2022-08-11T16:09:18.346Z,26.30
2022-08-11T16:14:41.702Z,26.10
2022-08-11T16:19:44.394Z,25.90
2022-08-11T16:27:02.256Z,25.80
2022-08-11T16:30:10.327Z,25.70
2022-08-11T16:35:35.952Z,25.70
2022-08-11T16:40:39.474Z,25.60
2022-08-11T16:46:01.047Z,25.50
2022-08-11T16:51:03.164Z,25.30
2022-08-11T16:56:06.381Z,25.20
2022-08-11T17:01:09.720Z,25.10
2022-08-11T17:06:30.733Z,25.00
2022-08-11T17:11:54.738Z,25.00
2022-08-11T17:16:57.345Z,25.00
2022-08-11T17:22:18.558Z,25.00
2022-08-11T17:27:22.358Z,24.80
2022-08-11T17:32:56.253Z,24.80
2022-08-11T17:38:16.936Z,24.70
2022-08-11T17:43:37.358Z,24.60
2022-08-11T17:48:47.780Z,24.40
2022-08-11T17:54:25.076Z,24.30
2022-08-11T17:59:48.978Z,24.20
2022-08-11T18:04:52.605Z,24.00
2022-08-11T18:10:13.432Z,23.80
2022-08-11T18:15:34.341Z,23.70
2022-08-11T18:20:55.593Z,23.50
2022-08-11T18:26:19.065Z,23.40
2022-08-11T18:31:40.161Z,23.20
2022-08-11T18:37:04.752Z,23.00
2022-08-11T18:42:29.069Z,22.70
2022-08-11T18:47:53.417Z,22.50
2022-08-11T18:53:18.745Z,22.30
2022-08-11T18:58:47.420Z,22.10
2022-08-11T19:04:11.050Z,21.90
2022-08-11T19:09:34.050Z,21.80
2022-08-11T19:14:55.521Z,21.60
2022-08-11T19:20:17.660Z,21.50
2022-08-11T19:25:40.652Z,21.40
2022-08-11T19:31:01.689Z,21.30
2022-08-11T19:36:22.141Z,21.30
2022-08-11T19:41:56.329Z,21.30
2022-08-11T19:47:19.912Z,21.40
2022-08-11T19:52:40.772Z,21.60
2022-08-11T19:58:04.091Z,21.60
2022-08-11T20:03:29.220Z,21.70
2022-08-11T20:08:50.976Z,21.60
2022-08-11T20:14:14.098Z,21.60
2022-08-11T20:19:55.276Z,21.60
2022-08-11T20:25:16.197Z,21.60
2022-08-11T20:30:36.707Z,21.50
2022-08-11T20:35:57.657Z,21.40
2022-08-11T20:41:19.120Z,21.40
2022-08-11T20:46:41.678Z,21.20
2022-08-11T20:52:06.001Z,21.20
2022-08-11T20:57:54.606Z,21.10
2022-08-11T21:03:07.352Z,21.10
2022-08-11T21:08:28.859Z,21.10
2022-08-11T21:13:54.108Z,21.00
2022-08-11T21:20:01.818Z,20.90
2022-08-11T21:25:07.274Z,20.90
2022-08-11T21:30:27.968Z,20.70
2022-08-11T21:35:48.806Z,20.60
2022-08-11T21:41:10.917Z,20.60
2022-08-11T21:46:33.780Z,20.50
2022-08-11T21:51:56.877Z,20.30
2022-08-11T21:57:17.966Z,20.20
2022-08-11T22:02:39.109Z,20.10
2022-08-11T22:08:01.696Z,20.00
2022-08-11T22:13:22.100Z,19.90
2022-08-11T22:18:43.567Z,19.80
2022-08-11T22:24:04.978Z,19.60
2022-08-11T22:29:38.256Z,19.50
2022-08-11T22:35:11.364Z,19.40
2022-08-11T22:40:32.441Z,19.30
2022-08-11T22:45:52.870Z,19.20
2022-08-11T22:51:14.386Z,19.20
2022-08-11T22:56:35.328Z,19.10
2022-08-11T23:01:57.608Z,18.90
2022-08-11T23:07:50.568Z,18.90
2022-08-11T23:13:00.476Z,18.80
2022-08-11T23:18:21.349Z,18.60
2022-08-11T23:23:42.361Z,18.60
2022-08-11T23:29:05.140Z,18.50
2022-08-11T23:35:03.455Z,18.40
2022-08-11T23:40:14.838Z,18.30
2022-08-11T23:45:35.230Z,18.10
2022-08-11T23:50:55.770Z,18.10
2022-08-11T23:56:17.276Z,17.90
